| time (UTC) | temp C | wind direction | speed KPH | gust KPH | rain 1hr cm | rain 24hr cm | rain mn cm | humidity % | barometer mb |
| 20260510063022 | 13 | 248 | 1.6 | 6.4 | 0.00 | 0.00 | 0.00 | 93 | 1012.9 |
| 20260510060022 | 13 | 248 | 3.2 | 6.4 | 0.00 | 0.00 | 0.00 | 92 | 1012.8 |
| 20260510053022 | 13 | 248 | 4.8 | 8.0 | 0.00 | 0.00 | 0.00 | 91 | 1012.7 |
| 20260510050023 | 13 | 248 | 4.8 | 8.0 | 0.00 | 0.00 | 0.00 | 90 | 1012.5 |
| 20260510043022 | 13 | 248 | 6.4 | 12.9 | 0.00 | 0.00 | 0.00 | 90 | 1012.4 |
| 20260510040021 | 14 | 270 | 6.4 | 11.3 | 0.00 | 0.00 | 0.00 | 89 | 1012.0 |
| 20260510033023 | 15 | 248 | 6.4 | 12.9 | 0.00 | 0.00 | 0.00 | 87 | 1011.5 |
| 20260510030022 | 15 | 270 | 9.7 | 14.5 | 0.00 | 0.00 | 0.00 | 84 | 1011.1 |
| 20260510023023 | 17 | 270 | 9.7 | 14.5 | 0.00 | 0.00 | 0.00 | 79 | 1011.0 |
| 20260510020023 | 18 | 248 | 12.9 | 20.9 | 0.00 | 0.00 | 0.00 | 73 | 1011.2 |
| 20260510013021 | 21 | 270 | 12.9 | 20.9 | 0.00 | 0.00 | 0.00 | 67 | 1010.9 |
| 20260510010021 | 22 | 270 | 11.3 | 17.7 | 0.00 | 0.00 | 0.00 | 62 | 1011.1 |
| 20260510003021 | 23 | 270 | 11.3 | 19.3 | 0.00 | 0.00 | 0.00 | 59 | 1011.0 |
| 20260510000023 | 23 | 248 | 11.3 | 22.5 | 0.00 | 0.00 | 0.00 | 57 | 1011.0 |
| 20260509233024 | 22 | 248 | 14.5 | 24.1 | 0.00 | 0.00 | 0.00 | 62 | 1010.9 |
| 20260509230043 | 22 | 248 | 16.1 | 27.4 | 0.00 | 0.00 | 0.00 | 63 | 1011.2 |
| 20260509223023 | 22 | 248 | 17.7 | 30.6 | 0.00 | 0.00 | 0.00 | 62 | 1011.4 |
| 20260509220023 | 23 | 248 | 16.1 | 29.0 | 0.00 | 0.00 | 0.00 | 60 | 1011.6 |
| 20260509213043 | 23 | 248 | 17.7 | 29.0 | 0.00 | 0.00 | 0.00 | 61 | 1011.8 |
| 20260509210041 | 23 | 248 | 16.1 | 27.4 | 0.00 | 0.00 | 0.00 | 60 | 1011.8 |
| 20260509203021 | 24 | 248 | 17.7 | 29.0 | 0.00 | 0.00 | 0.00 | 59 | 1012.0 |
| 20260509200023 | 25 | 248 | 12.9 | 24.1 | 0.00 | 0.00 | 0.00 | 58 | 1012.2 |
| 20260509193022 | 25 | 248 | 12.9 | 22.5 | 0.00 | 0.00 | 0.00 | 58 | 1012.4 |
| 20260509190023 | 24 | 293 | 11.3 | 20.9 | 0.00 | 0.00 | 0.00 | 62 | 1012.4 |
| 20260509183042 | 23 | 293 | 9.7 | 17.7 | 0.00 | 0.00 | 0.00 | 64 | 1012.7 |
| 20260509180044 | 22 | 338 | 8.0 | 17.7 | 0.00 | 0.00 | 0.00 | 68 | 1012.7 |
| 20260509173022 | 21 | 338 | 6.4 | 14.5 | 0.00 | 0.00 | 0.00 | 72 | 1012.9 |
| 20260509170043 | 19 | 315 | 4.8 | 14.5 | 0.00 | 0.00 | 0.00 | 78 | 1012.8 |
| 20260509163042 | 17 | 293 | 6.4 | 14.5 | 0.00 | 0.00 | 0.00 | 86 | 1012.7 |
| 20260509160022 | 16 | 338 | 1.6 | 8.0 | 0.00 | 0.00 | 0.00 | 94 | 1012.6 |
| 20260509153023 | 15 | 90 | 3.2 | 9.7 | 0.00 | 0.00 | 0.00 | 96 | 1012.7 |
| 20260509150022 | 13 | 90 | 1.6 | 8.0 | 0.00 | 0.00 | 0.00 | 97 | 1012.8 |
| 20260509143022 | 12 | 135 | 1.6 | 8.0 | 0.00 | 0.00 | 0.00 | 96 | 1012.8 |
| 20260509140022 | 13 | 90 | 1.6 | 6.4 | 0.00 | 0.00 | 0.00 | 96 | 1012.8 |
| 20260509133022 | 13 | 68 | 4.8 | 8.0 | 0.00 | 0.00 | 0.00 | 96 | 1012.6 |
| 20260509130022 | 13 | 113 | 3.2 | 6.4 | 0.00 | 0.00 | 0.00 | 96 | 1012.7 |
| 20260509123042 | 13 | 135 | 1.6 | 4.8 | 0.00 | 0.00 | 0.00 | 96 | 1012.6 |
| 20260509120023 | 13 | 225 | 1.6 | 6.4 | 0.00 | 0.00 | 0.00 | 96 | 1012.6 |
| 20260509113042 | 13 | 270 | 1.6 | 6.4 | 0.00 | 0.00 | 0.00 | 96 | 1012.7 |
| 20260509110022 | 13 | 135 | 1.6 | 6.4 | 0.00 | 0.00 | 0.00 | 96 | 1012.7 |
| 20260509103021 | 13 | 225 | 3.2 | 6.4 | 0.00 | 0.00 | 0.00 | 95 | 1012.7 |
| 20260509100021 | 13 | 225 | 1.6 | 4.8 | 0.00 | 0.00 | 0.00 | 95 | 1013.0 |
| 20260509093021 | 13 | 248 | 1.6 | 6.4 | 0.00 | 0.00 | 0.00 | 95 | 1013.3 |
| 20260509090021 | 14 | 113 | 1.6 | 9.7 | 0.00 | 0.00 | 0.00 | 95 | 1013.4 |
| 20260509083023 | 14 | 90 | 1.6 | 6.4 | 0.00 | 0.00 | 0.00 | 95 | 1013.5 |
| 20260509080041 | 14 | 0.0 | 3.2 | 0.00 | 0.00 | 0.00 | 95 | 1013.8 | |
| 20260509073042 | 14 | 248 | 1.6 | 6.4 | 0.00 | 0.00 | 0.00 | 94 | 1013.9 |
| 20260509070022 | 13 | 0.0 | 0.0 | 0.00 | 0.00 | 0.00 | 94 | 1014.0 |